createdAt,value
2022-09-01T00:00:38.247Z,71.83
2022-09-01T00:02:39.685Z,71.43
2022-09-01T00:04:41.078Z,71.39
2022-09-01T00:06:44.196Z,71.55
2022-09-01T00:08:45.490Z,71.67
2022-09-01T00:10:47.135Z,71.72
2022-09-01T00:12:48.469Z,71.85
2022-09-01T00:14:49.786Z,72.32
2022-09-01T00:16:51.871Z,72.26
2022-09-01T00:18:53.224Z,72.23
2022-09-01T00:20:59.156Z,72.45
2022-09-01T00:23:00.777Z,72.25
2022-09-01T00:25:02.199Z,72.21
2022-09-01T00:27:03.537Z,72.23
2022-09-01T00:29:04.898Z,72.31
2022-09-01T00:31:06.472Z,72.15
2022-09-01T00:33:08.271Z,72.30
2022-09-01T00:35:09.966Z,72.58
2022-09-01T00:37:11.282Z,72.98
2022-09-01T00:39:12.590Z,72.63
2022-09-01T00:41:13.902Z,72.95
2022-09-01T00:43:15.264Z,72.76
2022-09-01T00:45:16.649Z,72.64
2022-09-01T00:47:19.311Z,72.72
2022-09-01T00:49:20.685Z,72.96
2022-09-01T00:51:21.994Z,73.21
2022-09-01T00:53:23.316Z,73.35
2022-09-01T00:55:24.620Z,73.06
2022-09-01T00:57:25.923Z,73.39
2022-09-01T00:59:27.456Z,73.13
2022-09-01T01:01:28.918Z,73.45
2022-09-01T01:03:33.995Z,73.18
2022-09-01T01:05:36.495Z,73.67
2022-09-01T01:07:41.628Z,73.45
2022-09-01T01:09:47.391Z,73.40
2022-09-01T01:11:48.800Z,73.51
2022-09-01T01:13:51.080Z,73.77
2022-09-01T01:15:52.396Z,73.46
2022-09-01T01:17:53.710Z,73.72
2022-09-01T01:20:13.712Z,73.49
2022-09-01T01:22:33.631Z,74.08
2022-09-01T01:24:34.943Z,73.73
2022-09-01T01:26:37.206Z,74.08
2022-09-01T01:28:39.158Z,73.96
2022-09-01T01:30:40.514Z,74.22
2022-09-01T01:32:43.193Z,73.76
2022-09-01T01:34:46.883Z,73.99
2022-09-01T01:36:50.630Z,74.70
2022-09-01T01:38:52.529Z,74.89
2022-09-01T01:40:54.527Z,74.72
2022-09-01T01:42:57.283Z,74.56
2022-09-01T01:44:58.654Z,74.65
2022-09-01T01:46:59.962Z,75.03
2022-09-01T01:49:04.498Z,74.69
2022-09-01T01:51:05.863Z,74.91
2022-09-01T01:53:11.183Z,75.00
2022-09-01T01:55:13.059Z,75.47
2022-09-01T01:57:17.320Z,75.12
2022-09-01T01:59:19.619Z,74.71
2022-09-01T02:01:22.149Z,75.13
2022-09-01T02:03:25.040Z,74.80
2022-09-01T02:05:26.354Z,74.76
2022-09-01T02:07:27.674Z,75.18
2022-09-01T02:09:34.283Z,75.23
2022-09-01T02:11:37.862Z,75.31
2022-09-01T02:13:39.807Z,75.12
2022-09-01T02:15:44.587Z,74.78
2022-09-01T02:17:47.072Z,76.00
2022-09-01T02:19:48.461Z,74.99
2022-09-01T02:21:54.347Z,75.35
2022-09-01T02:24:01.061Z,75.91
2022-09-01T02:26:16.077Z,75.47
2022-09-01T02:28:20.172Z,75.84
2022-09-01T02:30:22.317Z,76.06
2022-09-01T02:32:23.703Z,76.08
2022-09-01T02:34:25.999Z,75.54
2022-09-01T02:36:28.068Z,75.87
2022-09-01T02:38:29.728Z,75.78
2022-09-01T02:40:31.528Z,75.95
2022-09-01T02:42:32.899Z,76.07
2022-09-01T02:44:36.242Z,75.88
2022-09-01T02:46:42.005Z,75.99
2022-09-01T02:48:43.497Z,75.92
2022-09-01T02:50:44.904Z,76.19
2022-09-01T02:52:48.562Z,75.93
2022-09-01T02:54:50.722Z,75.95
2022-09-01T02:56:54.471Z,75.78
2022-09-01T02:58:55.822Z,76.21
2022-09-01T03:00:57.211Z,76.27
2022-09-01T03:02:58.915Z,76.18
2022-09-01T03:05:00.335Z,76.36
2022-09-01T03:07:01.935Z,76.47
2022-09-01T03:09:03.281Z,75.72
2022-09-01T03:11:12.675Z,76.10
2022-09-01T03:13:14.539Z,76.44
2022-09-01T03:15:15.847Z,76.24
2022-09-01T03:17:17.179Z,76.43
2022-09-01T03:19:19.190Z,76.47
2022-09-01T03:21:20.543Z,76.31
2022-09-01T03:23:21.881Z,76.39
2022-09-01T03:25:25.128Z,75.70
2022-09-01T03:27:26.448Z,76.82
2022-09-01T03:29:27.777Z,75.32
2022-09-01T03:31:31.122Z,75.37
2022-09-01T03:33:32.992Z,75.63
2022-09-01T03:35:34.295Z,76.19
2022-09-01T03:37:37.199Z,76.08
2022-09-01T03:39:38.543Z,75.87
2022-09-01T03:41:39.863Z,76.46
2022-09-01T03:43:46.926Z,76.32
2022-09-01T03:45:48.713Z,76.02
2022-09-01T03:47:50.132Z,76.21
2022-09-01T03:49:51.788Z,76.07
2022-09-01T03:51:53.954Z,75.86
2022-09-01T03:53:55.507Z,76.08
2022-09-01T03:56:00.197Z,75.82
2022-09-01T03:58:03.280Z,75.99
2022-09-01T04:00:04.718Z,75.89
2022-09-01T04:02:06.407Z,75.83
2022-09-01T04:04:07.895Z,76.05
2022-09-01T04:06:09.250Z,76.50
2022-09-01T04:08:11.499Z,76.45
2022-09-01T04:10:12.836Z,76.79
2022-09-01T04:12:15.804Z,76.55
2022-09-01T04:14:17.232Z,76.14
2022-09-01T04:16:38.541Z,76.32
2022-09-01T04:18:40.120Z,76.02
2022-09-01T04:20:50.867Z,76.51
2022-09-01T04:22:52.772Z,76.15
2022-09-01T04:24:54.159Z,76.33
2022-09-01T04:26:55.720Z,76.15
2022-09-01T04:28:57.269Z,76.82
2022-09-01T04:30:58.751Z,76.79
2022-09-01T04:33:00.114Z,76.15
2022-09-01T04:35:02.165Z,76.38
2022-09-01T04:37:03.675Z,76.54
2022-09-01T04:39:08.840Z,76.71
2022-09-01T04:41:17.624Z,76.74
2022-09-01T04:43:18.995Z,76.24
2022-09-01T04:45:22.369Z,76.49
2022-09-01T04:47:31.742Z,76.70
2022-09-01T04:49:37.637Z,76.88
2022-09-01T04:51:39.007Z,76.74
2022-09-01T04:53:40.879Z,76.58
2022-09-01T04:55:45.131Z,76.31
2022-09-01T04:57:47.318Z,76.32
2022-09-01T04:59:48.643Z,76.29
2022-09-01T05:01:50.919Z,76.67
2022-09-01T05:04:01.566Z,76.13
2022-09-01T05:06:05.383Z,76.59
2022-09-01T05:08:06.925Z,76.75
2022-09-01T05:10:08.315Z,76.79
2022-09-01T05:12:12.802Z,76.72
2022-09-01T05:14:20.598Z,76.65
2022-09-01T05:16:25.505Z,76.94
2022-09-01T05:18:28.145Z,77.00
2022-09-01T05:20:30.189Z,76.83
2022-09-01T05:22:31.536Z,76.73
2022-09-01T05:24:39.849Z,76.65
2022-09-01T05:26:44.240Z,76.70
2022-09-01T05:28:45.579Z,76.34
2022-09-01T05:30:46.943Z,76.98
2022-09-01T05:32:49.197Z,76.76
2022-09-01T05:34:51.847Z,76.28
2022-09-01T05:36:53.210Z,76.87
2022-09-01T05:38:54.754Z,76.79
2022-09-01T05:40:56.175Z,76.81
2022-09-01T05:42:58.010Z,76.90
2022-09-01T05:45:00.193Z,76.90
2022-09-01T05:47:03.243Z,76.52
2022-09-01T05:49:07.010Z,76.67
2022-09-01T05:51:22.223Z,77.07
2022-09-01T05:53:31.067Z,76.93
2022-09-01T05:55:37.658Z,77.04
2022-09-01T05:57:39.932Z,76.67
2022-09-01T05:59:41.461Z,76.73
2022-09-01T06:01:46.876Z,77.08
2022-09-01T06:03:54.883Z,76.27
2022-09-01T06:05:58.688Z,76.79
2022-09-01T06:08:00.007Z,76.54
2022-09-01T06:10:01.344Z,76.81
2022-09-01T06:12:02.815Z,77.03
2022-09-01T06:14:04.476Z,77.13
2022-09-01T06:16:05.881Z,77.24
2022-09-01T06:18:07.288Z,76.67
2022-09-01T06:20:10.676Z,76.67
2022-09-01T06:22:12.311Z,76.29
2022-09-01T06:24:13.894Z,75.94
2022-09-01T06:26:15.215Z,74.31
2022-09-01T06:28:16.579Z,74.88
2022-09-01T06:30:23.859Z,74.80
2022-09-01T06:32:27.088Z,75.06
2022-09-01T06:34:29.605Z,75.18
2022-09-01T06:36:35.145Z,74.94
2022-09-01T06:38:37.655Z,75.31
2022-09-01T06:40:40.991Z,75.05
2022-09-01T06:42:43.420Z,75.00
2022-09-01T06:44:46.057Z,75.00
2022-09-01T06:46:47.680Z,75.34
2022-09-01T06:48:49.107Z,75.10
2022-09-01T06:53:32.568Z,74.78
2022-09-01T06:55:34.713Z,75.24
2022-09-01T06:59:59.490Z,74.50
2022-09-01T07:04:23.202Z,74.60
2022-09-01T07:11:23.061Z,74.46
2022-09-01T07:13:39.680Z,74.69
2022-09-01T07:18:22.473Z,74.42
2022-09-01T07:20:24.549Z,74.37
2022-09-01T07:27:09.546Z,74.39
2022-09-01T07:29:12.277Z,74.69
2022-09-01T07:33:44.453Z,74.15
2022-09-01T07:42:57.802Z,75.12
2022-09-01T07:43:06.686Z,74.66
2022-09-01T07:52:15.555Z,74.10
2022-09-01T07:54:25.234Z,74.24
2022-09-01T07:56:26.680Z,74.09
2022-09-01T07:58:28.717Z,74.15
2022-09-01T08:00:31.755Z,74.16
2022-09-01T08:02:33.349Z,74.51
2022-09-01T08:04:34.756Z,74.39
2022-09-01T08:06:39.280Z,74.47
2022-09-01T08:08:42.233Z,74.10
2022-09-01T08:10:44.536Z,74.15
2022-09-01T08:12:45.875Z,74.06
2022-09-01T08:14:47.503Z,73.87
2022-09-01T08:19:17.806Z,69.62
2022-09-01T08:21:19.819Z,67.82
2022-09-01T08:23:36.187Z,68.32
2022-09-01T08:25:37.866Z,68.97
2022-09-01T08:27:39.267Z,68.63
2022-09-01T08:29:40.653Z,69.00
2022-09-01T08:31:42.199Z,68.86
2022-09-01T08:33:43.636Z,69.18
2022-09-01T08:35:44.994Z,69.44
2022-09-01T08:37:46.313Z,68.37
2022-09-01T08:39:48.829Z,68.49
2022-09-01T08:41:50.215Z,68.76
2022-09-01T08:43:51.596Z,70.08
2022-09-01T08:45:56.094Z,70.23
2022-09-01T08:48:28.994Z,70.51
2022-09-01T08:50:20.752Z,69.51
2022-09-01T08:52:22.229Z,68.27
2022-09-01T08:54:29.558Z,67.97
2022-09-01T08:56:36.107Z,67.71
2022-09-01T08:58:37.596Z,67.82
2022-09-01T09:00:39.534Z,67.20
2022-09-01T09:02:41.044Z,67.97
2022-09-01T09:04:42.452Z,67.31
2022-09-01T09:06:43.769Z,67.69
2022-09-01T09:08:45.144Z,67.60
2022-09-01T09:10:49.739Z,67.51
2022-09-01T09:12:52.835Z,67.23
2022-09-01T09:14:54.175Z,67.13
2022-09-01T09:16:56.051Z,67.89
2022-09-01T09:18:57.914Z,68.38
2022-09-01T09:20:59.288Z,68.07
2022-09-01T09:23:00.605Z,67.64
2022-09-01T09:25:01.945Z,67.14
2022-09-01T09:27:03.697Z,66.24
2022-09-01T09:29:05.536Z,66.67
2022-09-01T09:31:08.082Z,66.57
2022-09-01T09:33:49.795Z,66.41
2022-09-01T09:35:33.240Z,67.15
2022-09-01T09:37:34.899Z,67.86
2022-09-01T09:39:36.308Z,67.80
2022-09-01T09:41:37.778Z,68.19
2022-09-01T09:43:42.229Z,68.47
2022-09-01T09:45:46.017Z,68.70
2022-09-01T09:47:48.478Z,68.66
2022-09-01T09:49:49.921Z,69.20
2022-09-01T09:51:51.470Z,68.94
2022-09-01T09:53:52.842Z,68.75
2022-09-01T09:55:56.289Z,68.71
2022-09-01T09:57:57.874Z,69.03
2022-09-01T10:00:00.537Z,68.73
2022-09-01T10:02:02.830Z,69.24
2022-09-01T10:04:04.273Z,68.86
2022-09-01T10:06:05.745Z,68.92
2022-09-01T10:08:08.709Z,68.81
2022-09-01T10:10:10.048Z,68.98
2022-09-01T10:12:14.344Z,68.70
2022-09-01T10:14:23.595Z,68.64
2022-09-01T10:16:37.595Z,68.67
2022-09-01T10:18:39.094Z,69.04
2022-09-01T10:20:40.563Z,68.82
2022-09-01T10:22:42.040Z,69.15
2022-09-01T10:24:50.181Z,69.44
2022-09-01T10:26:52.089Z,69.43
2022-09-01T10:28:53.460Z,69.57
2022-09-01T10:30:54.886Z,69.66
2022-09-01T10:32:58.079Z,69.55
2022-09-01T10:35:03.077Z,68.74
2022-09-01T10:37:04.415Z,69.19
2022-09-01T10:39:11.772Z,69.64
2022-09-01T10:41:15.720Z,69.93
2022-09-01T10:43:17.585Z,70.42
2022-09-01T10:45:19.730Z,70.90
2022-09-01T10:47:21.219Z,70.74
2022-09-01T10:49:25.151Z,70.78
2022-09-01T10:51:36.255Z,70.89
2022-09-01T10:53:51.280Z,71.07
2022-09-01T10:55:58.304Z,71.06
2022-09-01T10:59:29.621Z,71.41
2022-09-01T11:00:37.483Z,71.87
2022-09-01T11:02:42.429Z,71.64
2022-09-01T11:04:48.323Z,71.76
2022-09-01T11:09:11.078Z,71.97
2022-09-01T11:11:12.421Z,71.94
2022-09-01T11:13:15.692Z,72.56
2022-09-01T11:15:17.175Z,72.44
2022-09-01T11:17:18.578Z,72.39
2022-09-01T11:19:21.792Z,72.38
2022-09-01T11:21:23.132Z,72.25
2022-09-01T11:23:24.950Z,72.53
2022-09-01T11:25:26.681Z,72.78
2022-09-01T11:27:39.673Z,72.88
2022-09-01T11:29:41.124Z,71.70
2022-09-01T11:31:42.567Z,71.19
2022-09-01T11:33:44.253Z,71.25
2022-09-01T11:35:45.605Z,71.81
2022-09-01T11:37:46.949Z,71.55
2022-09-01T11:39:48.289Z,72.03
2022-09-01T11:41:54.479Z,72.39
2022-09-01T11:43:58.267Z,72.20
2022-09-01T11:45:59.676Z,72.65
2022-09-01T11:48:01.065Z,72.49
2022-09-01T11:50:02.503Z,72.24
2022-09-01T11:52:03.844Z,72.77
2022-09-01T11:54:05.172Z,72.39
2022-09-01T11:56:08.052Z,72.16
2022-09-01T11:58:09.354Z,72.35
2022-09-01T12:00:10.676Z,72.64
2022-09-01T12:02:13.005Z,72.74
2022-09-01T12:04:14.452Z,72.68
2022-09-01T12:06:15.829Z,72.24
2022-09-01T12:08:23.943Z,72.95
2022-09-01T12:10:26.363Z,72.56
2022-09-01T12:12:27.668Z,72.85
2022-09-01T12:14:43.419Z,72.42
2022-09-01T12:16:50.375Z,72.82
2022-09-01T12:18:51.765Z,72.66
2022-09-01T12:20:53.504Z,72.83
2022-09-01T12:22:55.356Z,72.93
2022-09-01T12:24:56.732Z,72.51
2022-09-01T12:26:59.060Z,72.79
2022-09-01T12:29:00.408Z,72.78
2022-09-01T12:31:01.790Z,72.77
2022-09-01T12:35:24.591Z,72.54
2022-09-01T12:37:26.398Z,72.56
2022-09-01T12:39:28.143Z,72.56
2022-09-01T12:41:29.491Z,72.59
2022-09-01T12:43:30.916Z,72.31
2022-09-01T12:45:32.289Z,72.52
2022-09-01T12:47:33.641Z,72.42
2022-09-01T12:49:35.349Z,72.72
2022-09-01T12:51:37.441Z,72.61
2022-09-01T12:53:38.849Z,72.38
2022-09-01T12:55:47.841Z,72.58
2022-09-01T12:57:51.319Z,72.39
2022-09-01T12:59:52.706Z,72.79
2022-09-01T13:01:54.292Z,72.77
2022-09-01T13:03:55.711Z,72.73
2022-09-01T13:05:58.348Z,72.44
2022-09-01T13:07:59.792Z,72.61
2022-09-01T13:10:01.233Z,72.81
2022-09-01T13:12:06.774Z,72.85
2022-09-01T13:14:08.468Z,72.81
2022-09-01T13:16:13.850Z,72.45
2022-09-01T13:18:15.394Z,72.60
2022-09-01T13:20:16.724Z,72.33
2022-09-01T13:22:18.055Z,72.45
2022-09-01T13:24:19.439Z,72.71
2022-09-01T13:26:21.565Z,72.87
2022-09-01T13:30:31.242Z,72.90
2022-09-01T13:32:32.618Z,72.63
2022-09-01T13:34:34.138Z,72.90
2022-09-01T13:36:45.278Z,72.54
2022-09-01T13:38:50.559Z,72.53
2022-09-01T13:40:52.152Z,72.52
2022-09-01T13:42:53.518Z,72.91
2022-09-01T13:44:55.539Z,72.88
2022-09-01T13:47:00.551Z,72.99
2022-09-01T13:49:04.858Z,72.95
2022-09-01T13:51:25.104Z,72.78
2022-09-01T13:53:26.423Z,72.98
2022-09-01T13:55:27.773Z,72.64
2022-09-01T13:57:31.586Z,72.48
2022-09-01T13:59:37.814Z,72.82
2022-09-01T14:01:41.942Z,72.83
2022-09-01T14:03:44.010Z,72.54
2022-09-01T14:05:45.435Z,72.55
2022-09-01T14:07:48.988Z,72.62
2022-09-01T14:09:50.307Z,72.95
2022-09-01T14:11:51.641Z,73.03
2022-09-01T14:13:52.975Z,72.92
2022-09-01T14:15:54.476Z,73.04
2022-09-01T14:17:56.478Z,72.86
2022-09-01T14:19:57.799Z,73.03
2022-09-01T14:21:59.128Z,72.72
2022-09-01T14:24:01.030Z,72.71
2022-09-01T14:26:02.440Z,73.04
2022-09-01T14:28:03.970Z,72.66
2022-09-01T14:30:05.994Z,72.72
2022-09-01T14:32:07.960Z,72.66
2022-09-01T14:34:09.887Z,72.77
2022-09-01T14:36:15.002Z,72.65
2022-09-01T14:38:17.070Z,72.73
2022-09-01T14:40:18.494Z,72.57
2022-09-01T14:42:19.936Z,73.03
2022-09-01T14:44:21.252Z,72.71
2022-09-01T14:46:23.207Z,72.58
2022-09-01T14:48:24.667Z,72.86
2022-09-01T14:50:26.002Z,72.75
2022-09-01T14:52:27.438Z,72.67
2022-09-01T14:54:28.808Z,72.96
2022-09-01T14:56:30.181Z,72.61
2022-09-01T14:58:31.542Z,72.72
2022-09-01T15:00:35.142Z,72.74
2022-09-01T15:02:36.638Z,72.86
2022-09-01T15:04:38.075Z,72.92
2022-09-01T15:06:39.424Z,72.85
2022-09-01T15:08:40.742Z,73.02
2022-09-01T15:10:42.076Z,72.73
2022-09-01T15:12:43.593Z,72.97
2022-09-01T15:14:45.676Z,72.67
2022-09-01T15:16:47.678Z,72.63
2022-09-01T15:18:49.016Z,72.96
2022-09-01T15:20:51.271Z,73.03
2022-09-01T15:22:52.739Z,72.95
2022-09-01T15:24:54.062Z,73.04
2022-09-01T15:26:55.475Z,72.86
2022-09-01T15:28:59.635Z,73.09
2022-09-01T15:31:01.021Z,72.83
2022-09-01T15:33:02.448Z,72.77
2022-09-01T15:35:03.846Z,73.10
2022-09-01T15:37:05.199Z,72.83
2022-09-01T15:39:06.531Z,72.87
2022-09-01T15:41:07.913Z,72.82
2022-09-01T15:43:09.339Z,73.07
2022-09-01T15:45:10.676Z,72.85
2022-09-01T15:47:12.012Z,72.70
2022-09-01T15:49:13.420Z,73.06
2022-09-01T15:51:16.232Z,73.16
2022-09-01T15:53:18.959Z,72.80
2022-09-01T15:55:20.359Z,73.32
2022-09-01T15:57:21.749Z,73.01
2022-09-01T15:59:23.103Z,72.79
2022-09-01T16:01:24.514Z,73.07
2022-09-01T16:03:26.239Z,73.25
2022-09-01T16:05:27.573Z,72.95
2022-09-01T16:07:28.917Z,72.91
2022-09-01T16:09:30.462Z,72.90
2022-09-01T16:11:31.796Z,73.27
2022-09-01T16:13:33.159Z,72.82
2022-09-01T16:15:35.438Z,72.84
2022-09-01T16:17:37.779Z,73.03
2022-09-01T16:19:39.512Z,72.86
2022-09-01T16:21:40.932Z,73.39
2022-09-01T16:23:42.325Z,72.80
2022-09-01T16:25:43.672Z,73.32
2022-09-01T16:27:45.684Z,72.97
2022-09-01T16:29:47.453Z,73.03
2022-09-01T16:31:48.817Z,73.19
2022-09-01T16:33:50.813Z,72.94
2022-09-01T16:35:53.325Z,73.04
2022-09-01T16:37:54.647Z,72.92
2022-09-01T16:39:55.966Z,72.94
2022-09-01T16:41:58.674Z,73.21
2022-09-01T16:44:00.346Z,73.35
2022-09-01T16:46:01.663Z,73.23
2022-09-01T16:48:02.980Z,73.33
2022-09-01T16:50:06.260Z,73.24
2022-09-01T16:52:08.209Z,73.10
2022-09-01T16:54:10.279Z,73.15
2022-09-01T16:56:11.647Z,73.14
2022-09-01T16:58:12.981Z,73.24
2022-09-01T17:00:20.787Z,73.22
2022-09-01T17:02:23.094Z,72.83
2022-09-01T17:04:24.440Z,73.22
2022-09-01T17:06:26.274Z,73.01
2022-09-01T17:08:27.628Z,73.29
2022-09-01T17:10:28.943Z,73.08
2022-09-01T17:12:30.770Z,73.04
2022-09-01T17:14:32.098Z,73.20
2022-09-01T17:16:37.017Z,72.95
2022-09-01T17:18:38.576Z,72.87
2022-09-01T17:20:40.204Z,72.88
2022-09-01T17:22:41.520Z,72.84
2022-09-01T17:24:42.933Z,72.84
2022-09-01T17:26:50.657Z,73.46
2022-09-01T17:28:52.118Z,72.97
2022-09-01T17:30:53.515Z,73.01
2022-09-01T17:32:55.063Z,72.98
2022-09-01T17:34:56.362Z,73.13
2022-09-01T17:36:57.677Z,73.21
2022-09-01T17:39:01.117Z,73.17
2022-09-01T17:41:04.563Z,73.09
2022-09-01T17:43:06.224Z,73.04
2022-09-01T17:45:10.159Z,73.24
2022-09-01T17:47:12.681Z,73.16
2022-09-01T17:49:14.044Z,73.29
2022-09-01T17:51:15.398Z,73.36
2022-09-01T17:53:17.201Z,73.06
2022-09-01T17:55:18.575Z,72.99
2022-09-01T17:57:19.947Z,73.05
2022-09-01T17:59:22.429Z,73.13
2022-09-01T18:01:23.856Z,73.26
2022-09-01T18:03:26.192Z,73.15
2022-09-01T18:05:27.561Z,73.10
2022-09-01T18:07:28.882Z,73.21
2022-09-01T18:09:30.244Z,73.33
2022-09-01T18:11:31.764Z,73.04
2022-09-01T18:13:51.848Z,73.06
2022-09-01T18:15:58.433Z,73.00
2022-09-01T18:18:01.746Z,73.28
2022-09-01T18:20:03.095Z,72.84
2022-09-01T18:22:04.455Z,73.29
2022-09-01T18:24:05.798Z,73.33
2022-09-01T18:26:07.139Z,72.97
2022-09-01T18:28:10.324Z,73.05
2022-09-01T18:30:11.684Z,73.10
2022-09-01T18:32:13.087Z,73.22
2022-09-01T18:34:14.434Z,73.27
2022-09-01T18:36:15.819Z,73.31
2022-09-01T18:38:17.137Z,72.89
2022-09-01T18:40:18.553Z,73.09
2022-09-01T18:42:19.891Z,73.25
2022-09-01T18:44:21.407Z,73.47
2022-09-01T18:46:22.863Z,72.82
2022-09-01T18:48:24.292Z,73.05
2022-09-01T18:50:25.647Z,73.30
2022-09-01T18:52:27.435Z,73.00
2022-09-01T18:54:28.754Z,73.32
2022-09-01T18:56:32.356Z,73.17
2022-09-01T18:58:36.959Z,73.23
2022-09-01T19:00:38.275Z,73.26
2022-09-01T19:02:40.235Z,73.16
2022-09-01T19:04:42.315Z,73.16
2022-09-01T19:06:43.748Z,73.01
2022-09-01T19:08:45.092Z,73.17
2022-09-01T19:10:46.471Z,72.97
2022-09-01T19:12:47.831Z,73.26
2022-09-01T19:14:49.174Z,73.23
2022-09-01T19:16:52.270Z,73.26
2022-09-01T19:18:53.936Z,73.06
2022-09-01T19:20:55.325Z,73.23
2022-09-01T19:22:59.013Z,73.29
2022-09-01T19:25:20.300Z,72.89
2022-09-01T19:27:21.688Z,73.15
2022-09-01T19:29:23.017Z,73.21
2022-09-01T19:31:24.399Z,72.89
2022-09-01T19:33:25.961Z,72.87
2022-09-01T19:35:27.539Z,72.87
2022-09-01T19:37:28.895Z,72.94
2022-09-01T19:39:30.224Z,72.88
2022-09-01T19:41:33.035Z,73.13
2022-09-01T19:43:36.379Z,72.99
2022-09-01T19:45:37.962Z,73.04
2022-09-01T19:47:39.293Z,72.96
2022-09-01T19:49:40.687Z,72.83
2022-09-01T19:51:42.127Z,73.23
2022-09-01T19:53:43.671Z,73.01
2022-09-01T19:55:44.995Z,73.13
2022-09-01T19:57:46.443Z,73.18
2022-09-01T19:59:47.804Z,73.30
2022-09-01T20:01:49.294Z,72.86
2022-09-01T20:03:50.685Z,73.14
2022-09-01T20:05:52.006Z,73.10
2022-09-01T20:07:54.001Z,72.97
2022-09-01T20:09:55.315Z,72.88
2022-09-01T20:11:56.662Z,73.01
2022-09-01T20:13:57.975Z,72.88
2022-09-01T20:16:00.465Z,73.07
2022-09-01T20:18:02.401Z,72.99
2022-09-01T20:20:03.731Z,73.05
2022-09-01T20:22:05.047Z,72.87
2022-09-01T20:24:06.380Z,72.87
2022-09-01T20:26:07.699Z,72.95
2022-09-01T20:28:09.230Z,73.04
2022-09-01T20:30:12.232Z,72.98
2022-09-01T20:32:13.558Z,73.08
2022-09-01T20:34:15.180Z,73.13
2022-09-01T20:36:16.506Z,72.91
2022-09-01T20:38:38.599Z,72.87
2022-09-01T20:40:43.639Z,72.91
2022-09-01T20:42:45.174Z,73.01
2022-09-01T20:44:46.500Z,72.84
2022-09-01T20:46:47.837Z,72.97
2022-09-01T20:48:49.163Z,72.99
2022-09-01T20:50:50.502Z,72.96
2022-09-01T20:52:51.819Z,73.16
2022-09-01T20:54:53.401Z,73.06
2022-09-01T20:56:54.747Z,73.18
2022-09-01T20:58:56.068Z,73.06
2022-09-01T21:00:57.522Z,72.78
2022-09-01T21:02:58.938Z,72.70
2022-09-01T21:05:00.374Z,72.80
2022-09-01T21:07:01.753Z,72.91
2022-09-01T21:09:03.115Z,72.86
2022-09-01T21:11:04.443Z,72.87
2022-09-01T21:13:05.764Z,73.02
2022-09-01T21:15:07.227Z,73.02
2022-09-01T21:17:08.571Z,73.06
2022-09-01T21:19:10.022Z,71.33
2022-09-01T21:21:11.430Z,69.85
2022-09-01T21:23:16.138Z,69.48
2022-09-01T21:25:17.450Z,68.43
2022-09-01T21:27:18.816Z,67.83
2022-09-01T21:29:20.175Z,67.16
2022-09-01T21:31:21.630Z,67.94
2022-09-01T21:33:23.199Z,67.96
2022-09-01T21:35:24.698Z,68.07
2022-09-01T21:37:26.056Z,68.50
2022-09-01T21:39:27.471Z,67.83
2022-09-01T21:41:28.835Z,67.23
2022-09-01T21:43:30.216Z,68.29
2022-09-01T21:45:33.876Z,67.66
2022-09-01T21:47:35.249Z,68.50
2022-09-01T21:49:36.569Z,68.78
2022-09-01T21:51:37.928Z,68.72
2022-09-01T21:53:39.275Z,68.94
2022-09-01T21:55:42.847Z,69.14
2022-09-01T21:57:45.920Z,69.17
2022-09-01T21:59:47.239Z,68.58
2022-09-01T22:01:48.677Z,68.83
2022-09-01T22:03:50.093Z,68.86
2022-09-01T22:05:51.534Z,69.43
2022-09-01T22:07:52.957Z,69.25
2022-09-01T22:09:54.366Z,68.65
2022-09-01T22:11:55.698Z,69.03
2022-09-01T22:13:57.019Z,69.36
2022-09-01T22:15:58.396Z,69.85
2022-09-01T22:17:59.750Z,69.32
2022-09-01T22:20:01.073Z,69.46
2022-09-01T22:22:03.161Z,69.10
2022-09-01T22:24:06.549Z,67.40
2022-09-01T22:26:09.650Z,68.09
2022-09-01T22:28:13.953Z,68.34
2022-09-01T22:30:15.525Z,68.32
2022-09-01T22:32:16.831Z,68.81
2022-09-01T22:34:18.207Z,68.52
2022-09-01T22:36:19.774Z,68.98
2022-09-01T22:38:21.324Z,68.62
2022-09-01T22:40:22.702Z,68.11
2022-09-01T22:42:24.847Z,67.89
2022-09-01T22:44:26.156Z,68.27
2022-09-01T22:46:27.503Z,68.26
2022-09-01T22:48:29.059Z,68.32
2022-09-01T22:50:30.379Z,68.50
2022-09-01T22:52:31.735Z,67.10
2022-09-01T22:54:33.139Z,68.38
2022-09-01T22:56:35.143Z,69.14
2022-09-01T22:58:36.499Z,69.07
2022-09-01T23:00:37.859Z,69.32
2022-09-01T23:02:39.263Z,69.25
2022-09-01T23:04:42.367Z,68.77
2022-09-01T23:06:44.388Z,69.14
2022-09-01T23:08:45.783Z,69.00
2022-09-01T23:10:47.171Z,68.87
2022-09-01T23:12:48.567Z,68.94
2022-09-01T23:14:49.886Z,69.37
2022-09-01T23:16:51.991Z,69.28
2022-09-01T23:18:53.449Z,69.23
2022-09-01T23:20:54.800Z,69.20
2022-09-01T23:22:56.147Z,68.92
2022-09-01T23:24:57.507Z,69.28
2022-09-01T23:26:58.858Z,65.56
2022-09-01T23:29:00.175Z,68.05
2022-09-01T23:31:01.878Z,68.92
2022-09-01T23:33:03.241Z,69.31
2022-09-01T23:35:04.690Z,69.96
2022-09-01T23:37:06.020Z,69.79
2022-09-01T23:39:07.355Z,70.53
2022-09-01T23:41:08.723Z,70.60
2022-09-01T23:43:10.050Z,70.83
2022-09-01T23:45:11.403Z,70.59
2022-09-01T23:47:12.803Z,71.05
2022-09-01T23:49:14.220Z,71.17
2022-09-01T23:51:15.536Z,71.43
2022-09-01T23:53:16.892Z,71.04
2022-09-01T23:55:18.471Z,71.34
2022-09-01T23:57:20.610Z,71.38
2022-09-01T23:59:27.606Z,71.58
